Time;durP1;ratioP1;P1;durP2;ratioP2;P2;SDS_P1;SDS_P2;PMS_P1;PMS_P2;Temp;Humidity;BMP_temperature;BMP_pressure;BME280_temperature;BME280_humidity;BME280_pressure;Samples;Min_cycle;Max_cycle;Signal;HPM_P1;HPM_P2
2022/06/04 00:00:11;;;;;;;0.40;0.40;;;17.50;99.90;;;;;;5070254;28;20425;-68
2022/06/04 00:02:42;;;;;;;0.40;0.30;;;17.60;99.90;;;;;;5070036;28;20380;-68
2022/06/04 00:05:09;;;;;;;0.40;0.20;;;17.50;99.90;;;;;;5070063;28;20462;-68
2022/06/04 00:07:35;;;;;;;0.47;0.47;;;17.40;99.90;;;;;;5069553;28;20383;-68
2022/06/04 00:15:33;;;;;;;0.40;0.20;;;17.50;99.90;;;;;;5069192;28;21165;-68
2022/06/04 00:18:00;;;;;;;0.40;0.20;;;17.50;99.90;;;;;;5070203;28;20491;-68
2022/06/04 00:20:26;;;;;;;0.40;0.20;;;17.40;99.90;;;;;;5069199;28;20372;-68
2022/06/04 00:22:58;;;;;;;0.90;0.90;;;17.40;99.90;;;;;;5070140;28;20848;-68
2022/06/04 00:25:24;;;;;;;0.40;0.25;;;17.40;99.90;;;;;;5069331;28;20383;-69
2022/06/04 00:27:50;;;;;;;0.60;0.60;;;17.30;99.90;;;;;;5052185;28;20388;-68
2022/06/04 00:30:16;;;;;;;0.40;0.20;;;17.40;99.90;;;;;;5070887;28;20376;-69
2022/06/04 00:32:41;;;;;;;0.52;0.28;;;17.40;99.90;;;;;;5073819;28;20843;-68
2022/06/04 00:35:08;;;;;;;0.40;0.40;;;17.50;99.90;;;;;;5055840;28;20753;-68
2022/06/04 00:37:35;;;;;;;0.40;0.40;;;17.50;99.90;;;;;;5072967;28;20383;-68
2022/06/04 00:40:02;;;;;;;0.40;0.20;;;17.60;99.90;;;;;;5073758;28;20410;-68
2022/06/04 00:42:28;;;;;;;0.40;0.40;;;17.40;99.90;;;;;;5072872;28;20705;-68
2022/06/04 00:45:12;;;;;;;0.80;0.80;;;17.40;99.90;;;;;;5073696;28;20423;-68
2022/06/04 00:47:38;;;;;;;0.40;0.20;;;17.50;99.90;;;;;;5072925;28;20475;-68
2022/06/04 00:50:05;;;;;;;0.40;0.20;;;17.40;99.90;;;;;;5073432;28;20471;-68
2022/06/04 00:52:32;;;;;;;0.40;0.30;;;17.30;99.90;;;;;;5072664;28;20736;-68
2022/06/04 00:54:59;;;;;;;0.40;0.20;;;17.30;99.90;;;;;;5073354;28;20380;-68
2022/06/04 00:57:40;;;;;;;0.70;0.60;;;17.20;99.90;;;;;;5072234;28;20860;-68
2022/06/04 01:00:09;;;;;;;0.40;0.30;;;17.20;99.90;;;;;;5073310;28;20382;-68
2022/06/04 01:02:57;;;;;;;0.40;0.20;;;17.30;99.90;;;;;;5072353;28;20391;-68
2022/06/04 01:05:59;;;;;;;0.40;0.20;;;17.10;99.90;;;;;;5072087;28;20388;-68
2022/06/04 01:08:53;;;;;;;0.40;0.20;;;17.00;99.90;;;;;;5072412;28;20584;-68
2022/06/04 01:12:09;;;;;;;0.40;0.30;;;17.10;99.90;;;;;;5072544;28;20380;-69
2022/06/04 01:15:00;;;;;;;0.40;0.38;;;17.20;99.90;;;;;;5072721;28;20407;-68
2022/06/04 01:17:50;;;;;;;0.60;0.50;;;17.20;99.90;;;;;;5072356;28;20405;-68
2022/06/04 01:20:44;;;;;;;0.40;0.40;;;17.20;99.90;;;;;;5072578;28;20380;-69
2022/06/04 01:23:48;;;;;;;0.40;0.40;;;17.20;99.90;;;;;;5055049;28;20729;-68
2022/06/04 01:26:43;;;;;;;0.40;0.30;;;17.30;99.90;;;;;;5072971;28;20391;-68
2022/06/04 01:29:20;;;;;;;0.47;0.45;;;17.30;99.90;;;;;;5036316;28;20528;-68
2022/06/04 01:31:53;;;;;;;0.40;0.20;;;17.30;99.90;;;;;;5072761;28;20380;-68
2022/06/04 01:34:29;;;;;;;0.40;0.30;;;17.30;99.90;;;;;;5072427;28;20804;-69
2022/06/04 01:37:35;;;;;;;0.40;0.20;;;17.10;99.90;;;;;;5072689;28;20376;-68
2022/06/04 01:42:51;;;;;;;0.40;0.20;;;17.10;99.90;;;;;;5072082;28;20421;-68
2022/06/04 01:45:21;;;;;;;0.90;0.60;;;17.20;99.90;;;;;;5072326;28;20380;-68
2022/06/04 01:47:50;;;;;;;0.50;0.50;;;17.20;99.90;;;;;;5072673;28;20736;-68
2022/06/04 01:50:23;;;;;;;0.40;0.30;;;17.30;99.90;;;;;;5072393;28;20389;-68
2022/06/04 01:52:53;;;;;;;0.40;0.30;;;17.20;99.90;;;;;;5072646;28;20466;-68
2022/06/04 01:55:22;;;;;;;0.40;0.30;;;17.30;99.90;;;;;;5072244;28;20430;-68
2022/06/04 01:58:18;;;;;;;0.57;0.57;;;17.50;99.90;;;;;;5071994;28;20392;-68
2022/06/04 02:00:57;;;;;;;0.40;0.20;;;17.50;99.90;;;;;;5071757;28;20382;-68
2022/06/04 02:03:33;;;;;;;1.20;1.10;;;17.50;99.90;;;;;;5071382;28;20400;-68
2022/06/04 02:06:13;;;;;;;0.40;0.20;;;17.50;99.90;;;;;;5072109;28;20409;-68
2022/06/04 02:08:51;;;;;;;0.80;0.80;;;17.70;99.90;;;;;;5071326;28;20376;-68
2022/06/04 02:11:19;;;;;;;1.00;1.00;;;17.90;99.90;;;;;;5072378;28;20459;-68
2022/06/04 02:13:48;;;;;;;0.70;0.70;;;18.10;99.90;;;;;;5071148;28;20391;-68
2022/06/04 02:16:20;;;;;;;0.40;0.30;;;18.20;99.90;;;;;;5071961;28;20384;-68
2022/06/04 02:18:47;;;;;;;0.50;0.50;;;18.20;99.90;;;;;;5072030;28;20415;-68
2022/06/04 02:21:16;;;;;;;0.40;0.30;;;18.10;99.90;;;;;;5071887;28;20863;-68
2022/06/04 02:23:43;;;;;;;0.40;0.20;;;18.10;99.90;;;;;;5071186;28;20402;-68
2022/06/04 02:26:09;;;;;;;0.40;0.35;;;18.10;99.90;;;;;;5071758;28;20390;-68
2022/06/04 02:28:36;;;;;;;0.40;0.30;;;18.30;99.90;;;;;;5071127;28;20380;-68
2022/06/04 02:31:19;;;;;;;0.40;0.20;;;18.50;99.90;;;;;;5071404;28;20883;-68
2022/06/04 02:34:00;;;;;;;0.40;0.20;;;18.40;99.90;;;;;;5071119;28;20415;-68
2022/06/04 02:36:33;;;;;;;0.40;0.20;;;18.40;99.90;;;;;;5071184;28;20388;-69
2022/06/04 02:39:10;;;;;;;0.50;0.50;;;18.30;99.90;;;;;;5071539;28;20720;-68
2022/06/04 02:41:50;;;;;;;0.63;0.63;;;18.30;99.90;;;;;;5070701;28;20380;-68
2022/06/04 02:44:33;;;;;;;0.40;0.30;;;18.20;99.90;;;;;;5071050;28;20434;-68
2022/06/04 02:47:10;;;;;;;0.40;0.30;;;18.20;99.90;;;;;;5071545;28;20416;-68
2022/06/04 02:49:56;;;;;;;0.50;0.50;;;18.10;99.90;;;;;;5070595;28;20384;-68
2022/06/04 02:52:23;;;;;;;0.40;0.30;;;18.10;99.90;;;;;;5070627;28;20380;-69
2022/06/04 02:55:12;;;;;;;0.40;0.20;;;18.00;99.90;;;;;;5071033;28;20390;-68
2022/06/04 02:57:42;;;;;;;0.40;0.30;;;17.80;99.90;;;;;;5070336;28;20376;-68
2022/06/04 03:00:12;;;;;;;0.40;0.30;;;17.70;99.90;;;;;;5071267;28;20383;-68
2022/06/04 03:02:38;;;;;;;0.40;0.20;;;17.70;99.90;;;;;;5070170;28;20388;-68
2022/06/04 03:05:13;;;;;;;0.40;0.35;;;17.60;99.90;;;;;;5071066;28;20511;-68
2022/06/04 03:07:41;;;;;;;0.40;0.30;;;17.50;99.90;;;;;;5070297;28;20406;-68
2022/06/04 03:10:13;;;;;;;0.40;0.30;;;17.40;99.90;;;;;;5071074;28;20384;-68
2022/06/04 03:12:38;;;;;;;0.40;0.20;;;17.40;99.90;;;;;;5070136;28;20728;-68
2022/06/04 03:15:04;;;;;;;0.40;0.30;;;17.40;99.90;;;;;;5070686;28;20383;-68
2022/06/04 03:17:30;;;;;;;0.40;0.40;;;17.40;99.90;;;;;;5070130;28;20429;-68
2022/06/04 03:19:56;;;;;;;0.50;0.50;;;17.40;99.90;;;;;;5070924;28;20379;-68
2022/06/04 03:22:21;;;;;;;0.40;0.30;;;17.50;99.90;;;;;;5070875;28;20378;-68
2022/06/04 03:24:47;;;;;;;0.40;0.30;;;17.40;99.90;;;;;;5070057;28;20408;-68
2022/06/04 03:27:13;;;;;;;0.40;0.20;;;17.40;99.90;;;;;;5070798;28;20390;-68
2022/06/04 03:29:38;;;;;;;0.40;0.30;;;17.40;99.90;;;;;;5069738;28;20517;-68
2022/06/04 03:32:04;;;;;;;0.40;0.30;;;17.50;99.90;;;;;;5070682;28;20380;-68
2022/06/04 03:34:30;;;;;;;0.68;0.68;;;17.60;99.90;;;;;;5069988;28;20483;-68
2022/06/04 03:36:56;;;;;;;0.57;0.57;;;17.70;99.90;;;;;;5070716;28;20982;-68
2022/06/04 03:39:21;;;;;;;0.40;0.30;;;17.90;99.90;;;;;;5070733;28;20427;-68
2022/06/04 03:41:47;;;;;;;0.60;0.60;;;18.20;99.90;;;;;;5069898;28;20432;-68
2022/06/04 03:44:13;;;;;;;0.40;0.30;;;18.40;99.90;;;;;;5049117;28;20474;-68
2022/06/04 03:46:38;;;;;;;0.40;0.30;;;18.30;99.90;;;;;;5049894;28;20381;-67
2022/06/04 03:49:05;;;;;;;1.20;0.70;;;18.20;99.90;;;;;;5050753;28;20440;-68
2022/06/04 03:51:31;;;;;;;1.00;0.70;;;18.00;99.90;;;;;;5049844;28;20405;-69
2022/06/04 03:53:57;;;;;;;0.70;0.70;;;17.90;99.90;;;;;;5050377;28;20389;-68
2022/06/04 03:56:23;;;;;;;0.43;0.25;;;17.80;99.90;;;;;;5050169;28;20377;-68
2022/06/04 03:58:49;;;;;;;0.40;0.30;;;17.80;99.90;;;;;;5049535;28;20485;-68
2022/06/04 04:01:22;;;;;;;1.00;1.00;;;17.70;99.90;;;;;;5050453;28;20795;-70
2022/06/04 04:03:47;;;;;;;0.40;0.32;;;17.70;99.90;;;;;;5049483;28;20408;-69
2022/06/04 04:06:16;;;;;;;0.40;0.30;;;17.60;99.90;;;;;;5053706;28;20377;-70
2022/06/04 04:08:42;;;;;;;0.40;0.30;;;17.60;99.90;;;;;;5053495;28;20459;-70
2022/06/04 04:11:13;;;;;;;1.08;1.08;;;17.60;99.90;;;;;;5054527;28;20424;-71
2022/06/04 04:13:40;;;;;;;0.50;0.50;;;17.60;99.90;;;;;;5053204;28;20416;-70
2022/06/04 04:16:07;;;;;;;1.00;1.00;;;17.60;99.90;;;;;;5054312;28;20769;-70
2022/06/04 04:18:34;;;;;;;0.80;0.80;;;17.60;99.90;;;;;;5053480;28;20382;-71
2022/06/04 04:21:05;;;;;;;0.60;0.50;;;17.60;99.90;;;;;;5054179;28;20393;-71
2022/06/04 04:23:30;;;;;;;0.40;0.30;;;17.70;99.90;;;;;;5053334;28;20402;-71
2022/06/04 04:25:56;;;;;;;0.40;0.20;;;17.70;99.90;;;;;;5053053;28;20436;-70
2022/06/04 04:28:22;;;;;;;0.40;0.30;;;17.70;99.90;;;;;;5054240;28;20872;-70
2022/06/04 04:30:47;;;;;;;0.80;0.60;;;17.90;99.90;;;;;;5053491;28;21052;-70
2022/06/04 04:33:13;;;;;;;0.40;0.23;;;17.90;99.90;;;;;;5053574;28;20510;-70
2022/06/04 04:35:39;;;;;;;0.40;0.30;;;17.90;99.90;;;;;;5053470;28;20738;-69
2022/06/04 04:38:05;;;;;;;0.40;0.20;;;17.90;99.90;;;;;;5053847;28;20377;-69
2022/06/04 04:40:31;;;;;;;0.40;0.30;;;17.90;99.90;;;;;;5052368;28;20743;-71
2022/06/04 04:42:58;;;;;;;0.40;0.30;;;18.00;99.90;;;;;;5055751;28;20417;-70
2022/06/04 04:45:24;;;;;;;1.20;0.70;;;17.90;99.90;;;;;;5073830;28;20409;-70
2022/06/04 04:47:52;;;;;;;0.40;0.30;;;17.50;99.90;;;;;;5072947;28;20380;-70
2022/06/04 04:50:38;;;;;;;1.33;0.75;;;17.60;99.90;;;;;;5073801;28;20735;-70
2022/06/04 04:53:08;;;;;;;0.40;0.20;;;17.50;99.90;;;;;;5073356;28;20408;-70
2022/06/04 04:55:34;;;;;;;0.40;0.20;;;17.50;99.90;;;;;;5055365;28;20763;-70
2022/06/04 04:58:01;;;;;;;0.40;0.20;;;17.50;99.90;;;;;;5073234;28;20396;-70
2022/06/04 05:00:28;;;;;;;0.40;0.20;;;17.50;99.90;;;;;;5073229;28;20380;-70
2022/06/04 05:02:56;;;;;;;0.40;0.20;;;17.60;99.90;;;;;;5072373;28;20417;-70
2022/06/04 05:05:22;;;;;;;0.40;0.30;;;17.60;99.90;;;;;;5073452;28;20475;-70
2022/06/04 05:07:48;;;;;;;0.40;0.20;;;17.60;99.90;;;;;;5072528;28;20554;-70
2022/06/04 05:10:14;;;;;;;0.40;0.20;;;17.50;99.90;;;;;;5073422;28;20421;-70
2022/06/04 05:12:40;;;;;;;0.40;0.20;;;17.40;99.90;;;;;;5071824;28;20449;-70
2022/06/04 05:15:06;;;;;;;0.40;0.30;;;17.40;99.90;;;;;;5073094;28;20372;-70
2022/06/04 05:17:31;;;;;;;0.40;0.30;;;17.40;99.90;;;;;;5072426;28;20387;-71
2022/06/04 05:19:57;;;;;;;1.00;0.90;;;17.40;99.90;;;;;;5072562;28;20403;-70
2022/06/04 05:22:23;;;;;;;0.90;0.90;;;17.30;99.90;;;;;;5072813;28;20378;-70
2022/06/04 05:24:48;;;;;;;0.40;0.30;;;17.40;99.90;;;;;;5054052;28;20407;-69
2022/06/04 05:27:15;;;;;;;0.40;0.30;;;17.30;99.90;;;;;;5073044;28;20390;-70
2022/06/04 05:29:40;;;;;;;0.40;0.30;;;17.40;99.90;;;;;;5072052;28;20482;-70
2022/06/04 05:32:07;;;;;;;0.40;0.30;;;17.40;99.90;;;;;;5071993;28;20510;-70
2022/06/04 05:34:33;;;;;;;0.40;0.30;;;17.30;99.90;;;;;;5072041;28;20406;-71
2022/06/04 05:37:01;;;;;;;0.40;0.30;;;17.20;99.90;;;;;;5072422;28;20372;-70
2022/06/04 05:39:30;;;;;;;0.40;0.30;;;17.30;99.90;;;;;;5052518;28;20840;-70
2022/06/04 05:41:56;;;;;;;0.40;0.30;;;17.40;99.90;;;;;;5051757;28;20389;-70
2022/06/04 05:44:21;;;;;;;0.50;0.50;;;17.30;99.90;;;;;;5052418;28;20482;-70
2022/06/04 05:46:47;;;;;;;0.40;0.30;;;17.30;99.90;;;;;;5033888;28;20381;-70
2022/06/04 05:49:13;;;;;;;0.60;0.50;;;17.30;99.90;;;;;;5068265;28;20396;-70
2022/06/04 05:51:42;;;;;;;0.40;0.20;;;17.40;99.90;;;;;;5068210;28;20475;-70
2022/06/04 05:54:08;;;;;;;0.40;0.30;;;17.40;99.90;;;;;;5052550;28;20424;-70
2022/06/04 05:56:37;;;;;;;0.40;0.40;;;17.50;99.90;;;;;;5052118;28;20389;-70
2022/06/04 05:59:07;;;;;;;0.40;0.30;;;17.50;99.90;;;;;;5067397;28;20379;-70
2022/06/04 06:01:34;;;;;;;0.40;0.30;;;17.50;99.90;;;;;;5071989;28;20439;-70
2022/06/04 06:04:00;;;;;;;0.40;0.20;;;17.60;99.90;;;;;;5071435;28;20521;-70
2022/06/04 06:06:29;;;;;;;0.40;0.30;;;17.50;99.90;;;;;;5072390;28;20372;-70
2022/06/04 06:08:56;;;;;;;0.40;0.20;;;17.50;99.90;;;;;;5071064;28;21046;-70
2022/06/04 06:11:23;;;;;;;0.40;0.30;;;17.40;99.90;;;;;;5054327;28;20403;-70
2022/06/04 06:13:50;;;;;;;0.40;0.30;;;17.50;99.90;;;;;;5070983;28;20993;-70
2022/06/04 06:16:22;;;;;;;0.40;0.40;;;17.60;99.90;;;;;;5053964;28;20387;-70
2022/06/04 06:18:48;;;;;;;0.40;0.20;;;17.50;99.90;;;;;;5071070;28;20438;-70
2022/06/04 06:21:17;;;;;;;0.40;0.20;;;17.60;99.90;;;;;;5071652;28;20407;-70
2022/06/04 06:23:43;;;;;;;0.50;0.50;;;17.60;99.90;;;;;;5050450;28;20885;-70
2022/06/04 06:26:13;;;;;;;0.40;0.20;;;17.50;99.90;;;;;;5069015;28;20394;-70
2022/06/04 06:28:41;;;;;;;0.40;0.30;;;17.60;99.90;;;;;;5065976;28;21061;-71
2022/06/04 06:31:08;;;;;;;0.40;0.20;;;17.80;99.90;;;;;;5070703;28;20396;-70
2022/06/04 06:33:34;;;;;;;0.50;0.50;;;17.90;99.90;;;;;;5070633;28;20518;-70
2022/06/04 06:36:02;;;;;;;0.40;0.20;;;18.00;99.90;;;;;;5069907;28;20479;-70
2022/06/04 06:38:29;;;;;;;0.40;0.30;;;18.10;99.90;;;;;;5069949;28;20402;-70
2022/06/04 06:40:56;;;;;;;0.40;0.20;;;18.20;99.90;;;;;;5069810;28;20935;-70
2022/06/04 06:43:31;;;;;;;0.40;0.22;;;18.20;99.90;;;;;;5069417;28;20434;-70
2022/06/04 06:46:08;;;;;;;0.40;0.20;;;18.30;99.90;;;;;;5050618;28;20381;-70
2022/06/04 06:48:36;;;;;;;0.40;0.20;;;18.40;99.90;;;;;;5051362;28;20389;-69
2022/06/04 06:51:11;;;;;;;0.40;0.40;;;18.40;99.90;;;;;;5050082;28;20918;-69
2022/06/04 06:53:37;;;;;;;0.40;0.25;;;18.40;99.90;;;;;;5070496;28;20383;-70
2022/06/04 06:56:20;;;;;;;0.40;0.30;;;18.50;99.90;;;;;;5069958;28;20392;-69
2022/06/04 06:58:46;;;;;;;0.60;0.60;;;18.60;99.90;;;;;;5069805;28;20388;-70
2022/06/04 07:01:13;;;;;;;0.40;0.28;;;18.80;99.90;;;;;;5052945;28;20898;-69
2022/06/04 07:03:39;;;;;;;0.40;0.30;;;18.80;99.90;;;;;;5070446;28;20411;-70
2022/06/04 07:06:07;;;;;;;0.40;0.20;;;18.70;99.90;;;;;;5052332;28;20898;-69
2022/06/04 07:08:35;;;;;;;0.40;0.20;;;18.70;99.90;;;;;;5069384;28;20771;-69
2022/06/04 07:11:00;;;;;;;0.40;0.20;;;18.70;99.90;;;;;;5069410;28;20402;-69
2022/06/04 07:13:26;;;;;;;0.40;0.20;;;18.80;99.90;;;;;;5068703;28;20404;-70
2022/06/04 07:15:52;;;;;;;0.40;0.20;;;19.00;99.90;;;;;;5069909;28;20752;-70
2022/06/04 07:18:19;;;;;;;0.40;0.20;;;19.00;99.90;;;;;;5070084;28;20391;-70
2022/06/04 07:20:45;;;;;;;1.20;0.70;;;19.00;99.90;;;;;;5068877;28;20714;-70
2022/06/04 07:23:11;;;;;;;0.40;0.30;;;18.80;99.90;;;;;;5070793;28;20445;-70
2022/06/04 07:25:41;;;;;;;0.40;0.30;;;19.00;99.90;;;;;;5070126;28;20418;-70
2022/06/04 07:28:08;;;;;;;0.40;0.40;;;19.00;99.90;;;;;;5069848;28;20388;-70
2022/06/04 07:30:34;;;;;;;0.40;0.30;;;19.10;99.90;;;;;;5052700;28;20747;-70
2022/06/04 07:33:00;;;;;;;0.40;0.30;;;19.20;99.90;;;;;;5069338;28;20395;-70
2022/06/04 07:35:25;;;;;;;0.40;0.20;;;19.20;99.90;;;;;;5070223;28;20425;-70
2022/06/04 07:37:51;;;;;;;0.40;0.30;;;19.30;99.90;;;;;;5069323;28;20391;-70
2022/06/04 07:40:17;;;;;;;0.40;0.20;;;19.20;99.90;;;;;;5070256;28;20394;-70
2022/06/04 07:42:43;;;;;;;0.80;0.80;;;19.20;99.90;;;;;;5051238;28;20404;-72
2022/06/04 07:45:09;;;;;;;0.40;0.30;;;19.30;99.90;;;;;;5069794;28;20724;-71
2022/06/04 07:47:35;;;;;;;0.40;0.20;;;19.40;99.90;;;;;;5069828;28;20392;-71
2022/06/04 07:50:02;;;;;;;0.40;0.30;;;19.50;99.90;;;;;;5069195;28;20463;-71
2022/06/04 07:52:28;;;;;;;0.40;0.30;;;19.50;99.90;;;;;;5052790;28;20383;-71
2022/06/04 07:54:53;;;;;;;0.40;0.20;;;19.50;99.90;;;;;;5069434;28;20416;-71
2022/06/04 07:57:19;;;;;;;0.50;0.40;;;19.60;99.90;;;;;;5069277;28;20391;-71
2022/06/04 07:59:45;;;;;;;0.40;0.20;;;19.70;99.90;;;;;;5069120;28;20685;-71
2022/06/04 08:02:12;;;;;;;0.40;0.40;;;20.00;99.90;;;;;;5052153;28;20380;-70
2022/06/04 08:04:38;;;;;;;0.40;0.20;;;20.20;99.90;;;;;;5068731;28;20464;-70
2022/06/04 08:07:05;;;;;;;0.40;0.20;;;20.10;99.90;;;;;;5068837;28;20379;-70
2022/06/04 08:09:32;;;;;;;0.40;0.25;;;20.30;99.90;;;;;;5069529;28;20417;-70
2022/06/04 08:11:58;;;;;;;0.40;0.30;;;20.40;99.90;;;;;;5068992;28;20384;-70
2022/06/04 08:14:25;;;;;;;0.40;0.20;;;20.50;99.90;;;;;;5069256;28;20411;-70
2022/06/04 08:16:56;;;;;;;0.40;0.20;;;20.70;99.90;;;;;;5050800;28;20422;-70
2022/06/04 08:19:24;;;;;;;0.40;0.20;;;20.70;99.90;;;;;;5070111;28;20869;-70
2022/06/04 08:21:51;;;;;;;0.40;0.20;;;20.60;99.90;;;;;;5069056;28;20445;-70
2022/06/04 08:24:18;;;;;;;0.40;0.20;;;20.60;99.90;;;;;;5052193;28;20811;-70
2022/06/04 08:26:46;;;;;;;0.40;0.20;;;20.70;99.90;;;;;;5068666;28;20471;-71
2022/06/04 08:29:12;;;;;;;0.40;0.20;;;20.80;99.90;;;;;;5069177;28;20439;-70
2022/06/04 08:31:38;;;;;;;0.40;0.20;;;20.70;99.90;;;;;;5070204;28;20376;-69
2022/06/04 08:34:05;;;;;;;0.40;0.20;;;20.80;99.90;;;;;;5069163;28;20395;-70
2022/06/04 08:36:31;;;;;;;0.40;0.20;;;20.90;99.90;;;;;;5070191;28;20380;-69
2022/06/04 08:38:57;;;;;;;0.40;0.20;;;20.90;99.90;;;;;;5051493;28;20388;-69
2022/06/04 08:41:35;;;;;;;0.82;0.35;;;20.80;99.90;;;;;;5070379;28;20699;-69
2022/06/04 08:44:09;;;;;;;0.40;0.30;;;20.80;99.90;;;;;;5068682;28;20419;-69
2022/06/04 08:46:51;;;;;;;0.40;0.20;;;20.90;99.90;;;;;;5069829;28;20464;-69
2022/06/04 08:49:54;;;;;;;0.40;0.20;;;21.20;99.90;;;;;;5070197;28;20380;-69
2022/06/04 08:52:57;;;;;;;0.40;0.20;;;21.40;99.90;;;;;;5059511;28;20407;-69
2022/06/04 08:58:32;;;;;;;0.40;0.20;;;21.10;99.90;;;;;;5073694;28;20462;-69
2022/06/04 09:01:24;;;;;;;0.40;0.20;;;21.20;99.90;;;;;;5072867;28;20380;-69
2022/06/04 09:04:01;;;;;;;0.40;0.30;;;21.00;99.90;;;;;;5033953;28;20473;-69
2022/06/04 09:06:41;;;;;;;0.40;0.20;;;20.90;99.90;;;;;;5073515;28;20383;-68
2022/06/04 09:09:27;;;;;;;0.40;0.20;;;20.90;99.90;;;;;;5072691;28;20410;-69
2022/06/04 09:12:05;;;;;;;0.40;0.30;;;21.30;99.90;;;;;;5072464;28;20384;-69
2022/06/04 09:14:41;;;;;;;0.40;0.25;;;21.30;99.90;;;;;;5073788;28;20752;-68
2022/06/04 09:17:12;;;;;;;0.40;0.27;;;21.50;99.90;;;;;;5072253;28;20397;-68
2022/06/04 09:19:40;;;;;;;0.40;0.30;;;21.30;99.90;;;;;;5073357;28;20848;-68
2022/06/04 09:22:21;;;;;;;0.40;0.30;;;21.30;99.90;;;;;;5072117;28;20868;-68
2022/06/04 09:24:48;;;;;;;0.80;0.70;;;21.30;99.90;;;;;;5072763;28;20474;-70
2022/06/04 09:27:16;;;;;;;0.40;0.30;;;21.10;99.90;;;;;;5073423;28;20379;-68
2022/06/04 09:30:07;;;;;;;0.40;0.30;;;20.80;99.90;;;;;;5073260;28;20380;-68
2022/06/04 09:32:45;;;;;;;0.40;0.20;;;21.00;99.90;;;;;;5072641;28;20427;-68
2022/06/04 09:35:18;;;;;;;0.80;0.80;;;21.20;99.90;;;;;;5072442;28;20530;-68
2022/06/04 09:37:47;;;;;;;0.40;0.30;;;21.30;99.90;;;;;;5073136;28;20473;-68
2022/06/04 09:40:37;;;;;;;1.50;0.90;;;21.40;99.90;;;;;;5072583;28;20368;-67
2022/06/04 09:43:13;;;;;;;0.40;0.30;;;21.10;99.90;;;;;;5071683;28;20763;-68
2022/06/04 09:45:39;;;;;;;0.40;0.30;;;20.90;99.90;;;;;;5072552;28;20388;-68
2022/06/04 09:48:19;;;;;;;0.80;0.40;;;20.90;99.90;;;;;;5072042;28;20863;-68
2022/06/04 09:50:54;;;;;;;0.40;0.30;;;21.00;99.90;;;;;;5072704;28;20403;-68
2022/06/04 09:53:26;;;;;;;0.40;0.30;;;21.30;99.90;;;;;;5072900;28;20467;-68
2022/06/04 09:55:54;;;;;;;0.40;0.30;;;21.10;99.90;;;;;;5071883;28;20399;-68
2022/06/04 09:58:41;;;;;;;0.43;0.43;;;21.20;99.90;;;;;;5072600;28;20399;-68
2022/06/04 10:01:16;;;;;;;0.40;0.30;;;21.30;99.90;;;;;;5071725;28;20394;-68
2022/06/04 10:03:43;;;;;;;0.40;0.20;;;21.20;99.90;;;;;;5072215;28;20468;-67
2022/06/04 10:06:12;;;;;;;0.50;0.50;;;21.30;99.90;;;;;;5071450;28;20497;-68
2022/06/04 10:11:34;;;;;;;0.40;0.30;;;21.50;99.90;;;;;;5072042;28;20379;-68
2022/06/04 10:14:00;;;;;;;0.50;0.40;;;21.40;99.90;;;;;;5071566;28;20895;-68
2022/06/04 10:16:41;;;;;;;0.40;0.30;;;21.60;99.90;;;;;;5072348;28;20376;-68
2022/06/04 10:19:15;;;;;;;0.40;0.30;;;21.70;99.90;;;;;;5071453;28;20380;-68
2022/06/04 10:21:44;;;;;;;0.40;0.20;;;21.90;99.90;;;;;;5072162;28;20389;-68
2022/06/04 10:24:22;;;;;;;0.40;0.20;;;21.70;99.90;;;;;;5069735;28;20891;-68
2022/06/04 10:27:20;;;;;;;0.80;0.80;;;21.70;99.90;;;;;;5070413;28;20430;-68
2022/06/04 10:30:12;;;;;;;1.00;0.60;;;21.60;99.90;;;;;;5071168;28;20392;-67
2022/06/04 10:33:16;;;;;;;0.40;0.40;;;21.80;99.90;;;;;;5071449;28;20396;-68
2022/06/04 10:36:14;;;;;;;0.90;0.90;;;21.90;99.90;;;;;;5046849;28;20768;-68
2022/06/04 10:39:19;;;;;;;1.40;1.30;;;22.10;99.90;;;;;;5071493;28;20388;-68
2022/06/04 10:41:58;;;;;;;0.40;0.33;;;22.40;99.90;;;;;;4976158;28;20404;-68
2022/06/04 10:44:32;;;;;;;0.40;0.30;;;22.50;99.90;;;;;;5060708;28;20436;-67
2022/06/04 10:47:13;;;;;;;0.40;0.30;;;22.50;99.90;;;;;;5057619;28;20494;-68
2022/06/04 10:50:08;;;;;;;0.40;0.30;;;22.50;99.90;;;;;;5069664;28;20424;-67
2022/06/04 10:52:53;;;;;;;0.40;0.20;;;22.70;99.90;;;;;;5068544;28;20392;-67
2022/06/04 10:55:39;;;;;;;0.40;0.20;;;23.00;99.90;;;;;;5069656;28;20942;-67
2022/06/04 10:58:14;;;;;;;0.40;0.20;;;23.10;99.90;;;;;;5067655;28;20422;-67
2022/06/04 11:00:47;;;;;;;0.40;0.30;;;23.30;99.90;;;;;;5070772;28;20448;-67
2022/06/04 11:03:41;;;;;;;0.40;0.20;;;23.10;99.90;;;;;;5054454;28;21142;-67
2022/06/04 11:06:18;;;;;;;0.40;0.30;;;23.30;99.90;;;;;;5069069;28;20474;-67
2022/06/04 11:08:54;;;;;;;0.40;0.30;;;23.60;99.90;;;;;;5070023;28;20426;-68
2022/06/04 11:11:32;;;;;;;0.40;0.20;;;23.80;99.90;;;;;;5056740;28;20387;-67
2022/06/04 11:14:09;;;;;;;0.40;0.20;;;24.00;99.90;;;;;;5069567;28;20434;-67
2022/06/04 11:16:42;;;;;;;0.40;0.30;;;24.30;99.90;;;;;;5070483;28;20391;-67
2022/06/04 11:19:35;;;;;;;0.40;0.30;;;24.30;99.90;;;;;;5070324;28;20387;-67
2022/06/04 11:22:33;;;;;;;0.40;0.30;;;24.30;99.90;;;;;;5069051;28;20859;-68
2022/06/04 11:25:24;;;;;;;0.60;0.60;;;24.70;99.90;;;;;;5059015;28;20798;-68
2022/06/04 11:28:05;;;;;;;0.40;0.30;;;25.00;99.90;;;;;;5070339;28;20391;-67
2022/06/04 11:30:58;;;;;;;0.40;0.20;;;25.10;99.90;;;;;;5070195;28;20453;-68
2022/06/04 11:33:52;;;;;;;0.40;0.30;;;25.60;99.90;;;;;;5069718;28;20732;-67
2022/06/04 11:36:29;;;;;;;0.40;0.30;;;25.90;99.90;;;;;;5050309;28;20385;-67
2022/06/04 11:39:19;;;;;;;0.50;0.50;;;26.10;97.90;;;;;;5050459;28;20386;-68
2022/06/04 11:42:29;;;;;;;0.40;0.30;;;27.00;96.30;;;;;;5050675;28;20385;-67
2022/06/04 11:45:20;;;;;;;0.40;0.30;;;27.80;94.70;;;;;;5062584;28;20473;-68
2022/06/04 11:48:00;;;;;;;0.40;0.30;;;27.20;94.10;;;;;;5070397;28;20419;-67
2022/06/04 11:50:35;;;;;;;0.40;0.20;;;26.90;92.30;;;;;;5070739;28;20759;-68
2022/06/04 11:53:13;;;;;;;0.40;0.30;;;28.10;94.70;;;;;;5072328;28;20378;-68
2022/06/04 11:56:02;;;;;;;0.40;0.20;;;29.20;90.20;;;;;;5067177;28;20392;-68
2022/06/04 11:58:52;;;;;;;0.40;0.20;;;28.90;83.50;;;;;;5064235;28;20519;-68
2022/06/04 12:01:35;;;;;;;0.40;0.20;;;29.10;89.00;;;;;;5065154;28;20537;-68
2022/06/04 12:04:11;;;;;;;0.40;0.20;;;29.60;81.90;;;;;;5068842;28;20872;-68
2022/06/04 12:06:43;;;;;;;0.40;0.20;;;28.10;83.90;;;;;;5070001;28;20384;-68
2022/06/04 12:09:38;;;;;;;0.40;0.20;;;29.20;76.60;;;;;;5069160;28;20767;-68
2022/06/04 12:12:24;;;;;;;0.40;0.30;;;29.60;79.90;;;;;;5030966;28;20395;-68
2022/06/04 12:15:14;;;;;;;0.40;0.20;;;30.00;76.80;;;;;;5069210;28;20412;-68
2022/06/04 12:17:44;;;;;;;0.40;0.20;;;30.30;73.50;;;;;;5060895;28;20379;-68
2022/06/04 12:26:35;;;;;;;0.40;0.30;;;29.70;71.90;;;;;;5070923;28;21064;-67
2022/06/04 12:29:25;;;;;;;0.40;0.20;;;28.80;76.10;;;;;;5073374;28;20482;-69
2022/06/04 12:32:34;;;;;;;0.40;0.30;;;29.30;78.20;;;;;;5067280;28;20744;-67
2022/06/04 12:35:11;;;;;;;0.40;0.30;;;29.10;74.00;;;;;;5063621;28;20397;-71
2022/06/04 12:37:44;;;;;;;0.40;0.20;;;28.60;79.80;;;;;;5073757;28;20388;-70
2022/06/04 12:40:32;;;;;;;0.40;0.20;;;27.90;82.80;;;;;;5072817;28;20856;-70
2022/06/04 12:43:18;;;;;;;0.40;0.20;;;28.40;83.60;;;;;;5071157;28;20418;-73
2022/06/04 12:45:50;;;;;;;0.40;0.22;;;29.80;75.50;;;;;;5073845;28;20392;-70
2022/06/04 12:48:21;;;;;;;0.40;0.20;;;28.40;80.40;;;;;;5072880;28;20383;-70
2022/06/04 12:50:51;;;;;;;0.40;0.40;;;28.30;83.70;;;;;;5073296;28;20928;-71
2022/06/04 12:53:20;;;;;;;0.40;0.30;;;28.90;81.00;;;;;;5072368;28;20732;-71
2022/06/04 12:55:58;;;;;;;0.40;0.20;;;28.00;78.50;;;;;;5073541;28;20440;-68
2022/06/04 12:58:29;;;;;;;0.40;0.20;;;28.50;77.10;;;;;;5072679;28;20388;-70
2022/06/04 13:01:02;;;;;;;0.40;0.20;;;29.20;75.30;;;;;;5073551;28;20471;-71
2022/06/04 13:03:27;;;;;;;0.40;0.30;;;29.00;76.10;;;;;;5071919;28;20756;-70
2022/06/04 13:06:12;;;;;;;1.00;0.40;;;28.70;76.50;;;;;;5073134;28;20388;-68
2022/06/04 13:08:59;;;;;;;0.50;0.40;;;29.30;78.30;;;;;;5072829;28;20432;-71
2022/06/04 13:11:48;;;;;;;0.40;0.30;;;29.80;73.30;;;;;;5072736;28;20429;-71
2022/06/04 13:14:28;;;;;;;0.40;0.20;;;29.90;78.70;;;;;;5071910;28;20400;-71
2022/06/04 13:16:58;;;;;;;0.40;0.30;;;29.60;72.10;;;;;;5073278;28;20445;-70
2022/06/04 13:19:41;;;;;;;0.63;0.40;;;29.70;75.90;;;;;;5072045;28;20376;-71
2022/06/04 13:22:20;;;;;;;0.40;0.30;;;29.50;73.30;;;;;;5072111;28;20931;-71
2022/06/04 13:24:47;;;;;;;0.40;0.30;;;29.00;75.00;;;;;;5072842;28;20826;-70
2022/06/04 13:27:17;;;;;;;0.50;0.50;;;29.00;78.80;;;;;;5071877;28;20392;-71
2022/06/04 13:29:43;;;;;;;0.40;0.20;;;29.60;74.80;;;;;;5072543;28;20424;-70
2022/06/04 13:32:20;;;;;;;0.40;0.30;;;29.30;75.80;;;;;;5071930;28;20415;-71
2022/06/04 13:34:46;;;;;;;0.40;0.30;;;30.60;69.20;;;;;;5070660;28;20941;-70
2022/06/04 13:37:23;;;;;;;0.40;0.20;;;30.90;66.90;;;;;;5071633;28;20471;-70
2022/06/04 13:39:52;;;;;;;0.40;0.30;;;31.20;65.30;;;;;;5072626;28;20380;-70